Time;durP1;ratioP1;P1;durP2;ratioP2;P2;SDS_P1;SDS_P2;PMS_P1;PMS_P2;Temp;Humidity;BMP_temperature;BMP_pressure;BME280_temperature;BME280_humidity;BME280_pressure;Samples;Min_cycle;Max_cycle;Signal;HPM_P1;HPM_P2
2021/07/20 00:01:44;;;;;;;18.88;16.98;;;;;;;;;;3585803;40;20041;-58
2021/07/20 00:04:10;;;;;;;18.08;16.27;;;;;;;;;;3585263;40;20047;-57
2021/07/20 00:06:35;;;;;;;21.55;17.92;;;;;;;;;;3584886;40;20045;-57
2021/07/20 00:09:02;;;;;;;22.58;20.38;;;;;;;;;;3586506;40;20049;-58
2021/07/20 00:11:28;;;;;;;20.90;18.70;;;;;;;;;;3586001;40;20040;-56
2021/07/20 00:13:53;;;;;;;22.65;20.40;;;;;;;;;;3586014;40;20041;-58
2021/07/20 00:16:19;;;;;;;22.52;20.30;;;;;;;;;;3585661;40;20043;-58
2021/07/20 00:18:44;;;;;;;28.02;22.85;;;;;;;;;;3586441;40;20067;-58
2021/07/20 00:21:10;;;;;;;24.60;22.20;;;;;;;;;;3585465;40;20252;-58
2021/07/20 00:23:36;;;;;;;25.52;22.67;;;;;;;;;;3584709;40;20036;-57
2021/07/20 00:26:02;;;;;;;28.08;25.38;;;;;;;;;;3584771;40;20361;-57
2021/07/20 00:28:27;;;;;;;25.02;22.83;;;;;;;;;;3585874;40;20047;-58
2021/07/20 00:30:53;;;;;;;21.65;19.45;;;;;;;;;;3586086;40;20364;-58
2021/07/20 00:33:19;;;;;;;18.65;16.67;;;;;;;;;;3584862;40;20028;-58
2021/07/20 00:35:45;;;;;;;24.02;15.85;;;;;;;;;;3586265;40;20040;-56
2021/07/20 00:38:12;;;;;;;20.73;17.55;;;;;;;;;;3585805;40;20036;-58
2021/07/20 00:40:39;;;;;;;21.15;17.83;;;;;;;;;;3586290;40;20620;-57
2021/07/20 00:43:05;;;;;;;19.38;17.38;;;;;;;;;;3586495;40;20040;-59
2021/07/20 00:45:31;;;;;;;21.95;15.98;;;;;;;;;;3586370;40;20029;-58
2021/07/20 00:47:57;;;;;;;17.90;15.88;;;;;;;;;;3585803;40;20040;-59
2021/07/20 00:50:29;;;;;;;18.55;16.27;;;;;;;;;;3586085;40;20048;-58
2021/07/20 00:52:54;;;;;;;18.40;16.50;;;;;;;;;;3585835;40;20446;-57
2021/07/20 00:55:21;;;;;;;19.77;16.23;;;;;;;;;;3586401;40;20048;-57
2021/07/20 00:57:47;;;;;;;17.35;15.50;;;;;;;;;;3585497;40;20134;-58
2021/07/20 01:00:17;;;;;;;19.17;15.20;;;;;;;;;;3585659;40;20071;-59
2021/07/20 01:02:43;;;;;;;18.27;15.13;;;;;;;;;;3586160;40;20478;-58
2021/07/20 01:05:12;;;;;;;19.63;16.13;;;;;;;;;;3586177;40;20043;-58
2021/07/20 01:07:38;;;;;;;21.55;14.57;;;;;;;;;;3585620;40;20033;-58
2021/07/20 01:10:08;;;;;;;17.60;15.18;;;;;;;;;;3585937;40;20051;-58
2021/07/20 01:12:37;;;;;;;21.55;13.98;;;;;;;;;;3586015;40;20132;-57
2021/07/20 01:15:04;;;;;;;17.15;14.02;;;;;;;;;;3586073;40;20045;-58
2021/07/20 01:17:31;;;;;;;19.92;13.88;;;;;;;;;;3585922;40;20284;-58
2021/07/20 01:19:56;;;;;;;24.58;14.73;;;;;;;;;;3584056;40;20033;-58
2021/07/20 01:22:32;;;;;;;20.63;12.95;;;;;;;;;;3583930;40;20036;-57
2021/07/20 01:25:00;;;;;;;15.05;13.48;;;;;;;;;;3585061;40;20146;-57
2021/07/20 01:27:25;;;;;;;19.40;13.70;;;;;;;;;;3585422;40;20064;-58
2021/07/20 01:29:52;;;;;;;16.52;13.60;;;;;;;;;;3585910;40;20372;-55
2021/07/20 01:32:20;;;;;;;20.98;14.10;;;;;;;;;;3585475;40;20355;-57
2021/07/20 01:34:46;;;;;;;15.45;12.88;;;;;;;;;;3585643;40;20031;-57
2021/07/20 01:37:13;;;;;;;17.73;14.25;;;;;;;;;;3586412;40;20080;-58
2021/07/20 01:39:41;;;;;;;16.60;13.32;;;;;;;;;;3586343;40;20444;-57
2021/07/20 01:42:08;;;;;;;14.73;12.65;;;;;;;;;;3585697;40;20036;-58
2021/07/20 01:44:33;;;;;;;15.60;12.50;;;;;;;;;;3585509;40;20045;-58
2021/07/20 01:46:59;;;;;;;16.33;12.43;;;;;;;;;;3585245;40;20072;-57
2021/07/20 01:49:27;;;;;;;15.60;12.68;;;;;;;;;;3585487;40;20407;-57
2021/07/20 01:51:52;;;;;;;17.83;12.30;;;;;;;;;;3583740;40;20055;-57
2021/07/20 01:54:18;;;;;;;17.90;12.30;;;;;;;;;;3584092;40;20044;-58
2021/07/20 01:56:46;;;;;;;15.23;11.27;;;;;;;;;;3586009;40;20371;-58
2021/07/20 01:59:12;;;;;;;14.38;11.63;;;;;;;;;;3585595;40;20254;-58
2021/07/20 02:01:49;;;;;;;18.30;13.18;;;;;;;;;;3585543;40;20075;-58
2021/07/20 02:09:50;;;;;;;17.70;13.13;;;;;;;;;;3584953;40;20264;-57
2021/07/20 02:12:17;;;;;;;18.15;13.07;;;;;;;;;;3584918;40;20064;-58
2021/07/20 02:14:45;;;;;;;17.88;12.90;;;;;;;;;;3580906;40;20044;-59
2021/07/20 02:17:13;;;;;;;13.65;12.13;;;;;;;;;;3585562;40;20033;-59
2021/07/20 02:19:50;;;;;;;16.15;12.80;;;;;;;;;;3585559;40;20066;-59
2021/07/20 02:22:19;;;;;;;16.67;13.07;;;;;;;;;;3585468;40;20048;-59
2021/07/20 02:24:49;;;;;;;16.92;13.52;;;;;;;;;;3584523;40;20120;-59
2021/07/20 02:27:17;;;;;;;17.30;12.68;;;;;;;;;;3593108;40;20564;-59
2021/07/20 02:29:44;;;;;;;19.17;12.70;;;;;;;;;;3584830;40;20410;-59
2021/07/20 02:32:10;;;;;;;18.33;13.25;;;;;;;;;;3584970;40;20051;-59
2021/07/20 02:34:38;;;;;;;14.35;12.38;;;;;;;;;;3585239;40;20033;-59
2021/07/20 02:37:05;;;;;;;14.45;12.85;;;;;;;;;;3584358;40;20052;-59
2021/07/20 02:39:32;;;;;;;19.25;12.90;;;;;;;;;;3583095;40;20122;-59
2021/07/20 02:41:58;;;;;;;15.57;13.05;;;;;;;;;;3584941;40;20033;-59
2021/07/20 02:44:25;;;;;;;15.52;12.88;;;;;;;;;;3587235;40;20035;-59
2021/07/20 02:46:51;;;;;;;17.90;13.77;;;;;;;;;;3586351;40;20031;-59
2021/07/20 02:49:18;;;;;;;14.38;12.57;;;;;;;;;;3586222;40;20141;-59
2021/07/20 02:51:45;;;;;;;23.83;13.98;;;;;;;;;;3586057;40;20055;-58
2021/07/20 02:54:12;;;;;;;19.13;12.70;;;;;;;;;;3586928;40;20044;-59
2021/07/20 02:56:40;;;;;;;14.00;12.13;;;;;;;;;;3585147;40;20052;-59
2021/07/20 02:59:06;;;;;;;16.23;12.98;;;;;;;;;;3586284;40;20040;-59
2021/07/20 03:01:35;;;;;;;17.67;13.38;;;;;;;;;;3586852;40;20560;-59
2021/07/20 03:04:01;;;;;;;21.77;14.45;;;;;;;;;;3587325;40;20025;-58
2021/07/20 03:06:27;;;;;;;24.42;14.00;;;;;;;;;;3587070;40;20033;-59
2021/07/20 03:08:58;;;;;;;21.20;13.65;;;;;;;;;;3586099;40;20114;-59
2021/07/20 03:11:27;;;;;;;18.75;14.32;;;;;;;;;;3586827;40;20061;-59
2021/07/20 03:13:56;;;;;;;21.65;14.00;;;;;;;;;;3587123;40;20289;-59
2021/07/20 03:16:22;;;;;;;22.67;13.80;;;;;;;;;;3586024;40;20414;-59
2021/07/20 03:18:52;;;;;;;18.77;14.25;;;;;;;;;;3586637;40;20384;-58
2021/07/20 03:21:18;;;;;;;20.83;15.57;;;;;;;;;;3584027;40;20407;-59
2021/07/20 03:23:45;;;;;;;22.73;15.02;;;;;;;;;;3585070;40;20083;-59
2021/07/20 03:26:12;;;;;;;24.52;15.52;;;;;;;;;;3585841;40;20040;-58
2021/07/20 03:28:39;;;;;;;18.73;14.20;;;;;;;;;;3586044;40;20029;-59
2021/07/20 03:31:05;;;;;;;16.45;13.77;;;;;;;;;;3586019;40;20043;-58
2021/07/20 03:33:31;;;;;;;18.48;13.98;;;;;;;;;;3586209;40;20033;-59
2021/07/20 03:35:57;;;;;;;18.30;13.88;;;;;;;;;;3586578;40;20076;-58
2021/07/20 03:38:23;;;;;;;20.00;14.20;;;;;;;;;;3585339;40;20048;-58
2021/07/20 03:40:52;;;;;;;18.25;13.45;;;;;;;;;;3585806;40;20372;-58
2021/07/20 03:43:22;;;;;;;20.65;13.90;;;;;;;;;;3585158;40;20080;-58
2021/07/20 03:45:48;;;;;;;15.95;12.20;;;;;;;;;;3584809;40;20036;-59
2021/07/20 03:48:14;;;;;;;17.83;12.55;;;;;;;;;;3585616;40;20059;-59
2021/07/20 03:50:45;;;;;;;16.52;13.88;;;;;;;;;;3585761;40;20067;-59
2021/07/20 03:53:12;;;;;;;17.30;13.32;;;;;;;;;;3593635;40;20051;-59
2021/07/20 03:55:45;;;;;;;15.90;13.80;;;;;;;;;;3586230;40;20101;-59
2021/07/20 03:58:12;;;;;;;19.17;15.57;;;;;;;;;;3585530;40;20032;-58
2021/07/20 04:00:38;;;;;;;18.40;15.43;;;;;;;;;;3586531;40;20037;-59
2021/07/20 04:03:22;;;;;;;22.23;15.50;;;;;;;;;;3586338;40;20245;-59
2021/07/20 04:06:09;;;;;;;17.08;14.93;;;;;;;;;;3586304;40;20025;-58
2021/07/20 04:08:37;;;;;;;17.58;14.73;;;;;;;;;;3584941;40;20573;-59
2021/07/20 04:11:03;;;;;;;15.30;13.60;;;;;;;;;;3585431;40;20041;-58
2021/07/20 04:13:30;;;;;;;19.95;14.65;;;;;;;;;;3585900;40;20048;-59
2021/07/20 04:15:59;;;;;;;22.17;15.82;;;;;;;;;;3586029;40;20047;-59
2021/07/20 04:18:25;;;;;;;18.75;15.52;;;;;;;;;;3586418;40;20355;-59
2021/07/20 04:20:52;;;;;;;18.33;14.30;;;;;;;;;;3584658;40;20030;-59
2021/07/20 04:23:20;;;;;;;20.33;15.50;;;;;;;;;;3586017;40;20126;-59
2021/07/20 04:25:47;;;;;;;20.63;14.85;;;;;;;;;;3585395;40;20032;-59
2021/07/20 04:28:15;;;;;;;19.35;14.85;;;;;;;;;;3585762;40;20029;-59
2021/07/20 04:30:42;;;;;;;16.45;14.57;;;;;;;;;;3585924;40;20040;-59
2021/07/20 04:33:09;;;;;;;17.15;15.32;;;;;;;;;;3584555;40;20146;-59
2021/07/20 04:35:35;;;;;;;18.17;14.48;;;;;;;;;;3583710;40;20118;-59
2021/07/20 04:38:01;;;;;;;18.17;14.07;;;;;;;;;;3584652;40;20035;-59
2021/07/20 04:40:27;;;;;;;22.20;15.95;;;;;;;;;;3585368;40;20067;-59
2021/07/20 04:42:53;;;;;;;21.92;15.73;;;;;;;;;;3585530;40;20352;-59
2021/07/20 04:45:19;;;;;;;22.58;16.10;;;;;;;;;;3585738;40;20055;-59
2021/07/20 04:47:45;;;;;;;18.27;16.20;;;;;;;;;;3586342;40;20032;-60
2021/07/20 04:50:13;;;;;;;17.85;14.77;;;;;;;;;;3584932;40;20606;-58
2021/07/20 04:52:41;;;;;;;17.75;15.48;;;;;;;;;;3584258;40;20044;-59
2021/07/20 04:55:07;;;;;;;26.35;16.33;;;;;;;;;;3583667;40;20056;-59
2021/07/20 04:57:35;;;;;;;18.95;16.13;;;;;;;;;;3583724;40;20035;-59
2021/07/20 05:00:01;;;;;;;18.80;15.07;;;;;;;;;;3584784;40;20032;-58
2021/07/20 05:02:28;;;;;;;18.15;14.23;;;;;;;;;;3583815;40;20090;-58
2021/07/20 05:04:55;;;;;;;17.75;15.15;;;;;;;;;;3585753;40;20488;-58
2021/07/20 05:07:21;;;;;;;21.48;15.88;;;;;;;;;;3584099;40;20024;-59
2021/07/20 05:09:48;;;;;;;17.23;13.10;;;;;;;;;;3583062;40;20035;-59
2021/07/20 05:12:14;;;;;;;20.38;13.60;;;;;;;;;;3583932;40;20037;-59
2021/07/20 05:14:42;;;;;;;18.63;16.13;;;;;;;;;;3584526;40;20028;-59
2021/07/20 05:17:10;;;;;;;19.92;15.25;;;;;;;;;;3584829;40;20055;-60
2021/07/20 05:19:37;;;;;;;20.00;15.63;;;;;;;;;;3584951;40;20054;-59
2021/07/20 05:22:03;;;;;;;20.13;15.00;;;;;;;;;;3583750;40;20039;-59
2021/07/20 05:24:31;;;;;;;18.05;14.93;;;;;;;;;;3585334;40;20276;-59
2021/07/20 05:26:59;;;;;;;21.90;16.52;;;;;;;;;;3585714;40;20391;-59
2021/07/20 05:29:25;;;;;;;21.33;14.93;;;;;;;;;;3585724;40;20040;-59
2021/07/20 05:31:52;;;;;;;16.85;13.95;;;;;;;;;;3585902;40;20626;-59
2021/07/20 05:34:19;;;;;;;18.63;15.02;;;;;;;;;;3584517;40;20073;-59
2021/07/20 05:36:44;;;;;;;21.42;15.68;;;;;;;;;;3586075;40;20283;-59
2021/07/20 05:39:13;;;;;;;19.15;14.75;;;;;;;;;;3585037;40;20036;-59
2021/07/20 05:41:43;;;;;;;21.35;15.57;;;;;;;;;;3585373;40;20121;-59
2021/07/20 05:44:15;;;;;;;24.05;15.60;;;;;;;;;;3586111;40;20040;-60
2021/07/20 05:46:41;;;;;;;17.23;14.77;;;;;;;;;;3584577;40;20024;-59
2021/07/20 05:49:08;;;;;;;24.08;15.70;;;;;;;;;;3585645;40;20060;-59
2021/07/20 05:51:37;;;;;;;21.52;15.02;;;;;;;;;;3585862;40;20045;-59
2021/07/20 05:54:03;;;;;;;18.98;14.98;;;;;;;;;;3585526;40;20040;-59
2021/07/20 05:56:30;;;;;;;19.25;14.77;;;;;;;;;;3582330;40;20032;-60
2021/07/20 05:59:00;;;;;;;25.92;15.55;;;;;;;;;;3584877;40;20387;-59
2021/07/20 06:01:27;;;;;;;36.25;16.55;;;;;;;;;;3584384;40;20036;-59
2021/07/20 06:03:57;;;;;;;18.92;14.25;;;;;;;;;;3584721;40;20064;-59
2021/07/20 06:06:30;;;;;;;22.77;14.65;;;;;;;;;;3585648;40;20263;-59
2021/07/20 06:08:59;;;;;;;16.10;14.40;;;;;;;;;;3587363;40;20051;-59
2021/07/20 06:11:25;;;;;;;18.75;15.98;;;;;;;;;;3587169;40;20290;-59
2021/07/20 06:13:53;;;;;;;18.80;14.98;;;;;;;;;;3587124;40;20036;-59
2021/07/20 06:16:23;;;;;;;19.27;14.07;;;;;;;;;;3585675;40;20037;-59
2021/07/20 06:18:49;;;;;;;19.33;13.80;;;;;;;;;;3586938;40;20122;-59
2021/07/20 06:21:19;;;;;;;20.17;14.10;;;;;;;;;;3584701;40;20056;-59
2021/07/20 06:23:46;;;;;;;19.73;15.03;;;;;;;;;;3585086;40;20045;-59
2021/07/20 06:26:17;;;;;;;19.23;15.25;;;;;;;;;;3584724;40;20552;-59
2021/07/20 06:28:43;;;;;;;;;;;;;;;;;;3586436;40;20033;-59
2021/07/20 06:31:09;;;;;;;16.92;13.43;;;;;;;;;;3586020;40;20346;-59
2021/07/20 06:33:38;;;;;;;16.20;13.57;;;;;;;;;;3584983;40;20043;-59
2021/07/20 06:36:04;;;;;;;14.95;12.80;;;;;;;;;;3586208;40;20032;-59
2021/07/20 06:38:32;;;;;;;19.17;13.18;;;;;;;;;;3585563;40;20028;-59
2021/07/20 06:40:58;;;;;;;15.30;12.27;;;;;;;;;;3586751;40;20036;-59
2021/07/20 06:43:25;;;;;;;16.83;12.50;;;;;;;;;;3586579;40;20048;-58
2021/07/20 06:45:51;;;;;;;13.75;11.32;;;;;;;;;;3587085;40;20044;-59
2021/07/20 06:48:21;;;;;;;17.63;11.45;;;;;;;;;;3585956;40;20049;-59
2021/07/20 06:50:50;;;;;;;16.07;10.83;;;;;;;;;;3586211;40;20033;-59
2021/07/20 06:53:16;;;;;;;20.27;11.73;;;;;;;;;;3586365;40;20028;-59
2021/07/20 06:55:59;;;;;;;16.55;11.38;;;;;;;;;;3586828;40;20045;-59
2021/07/20 06:58:27;;;;;;;15.70;11.45;;;;;;;;;;3587008;40;20272;-59
2021/07/20 07:00:55;;;;;;;17.98;12.02;;;;;;;;;;3585984;40;20142;-59
2021/07/20 07:03:42;;;;;;;18.50;11.65;;;;;;;;;;3586215;40;20091;-59
2021/07/20 07:06:09;;;;;;;14.40;10.75;;;;;;;;;;3586950;40;20049;-59
2021/07/20 07:08:37;;;;;;;15.73;10.40;;;;;;;;;;3586647;40;20039;-59
2021/07/20 07:11:03;;;;;;;12.18;9.63;;;;;;;;;;3585382;40;20061;-56
2021/07/20 07:13:29;;;;;;;18.65;9.10;;;;;;;;;;3585093;40;20375;-59
2021/07/20 07:15:56;;;;;;;14.60;10.10;;;;;;;;;;3587126;40;20036;-59
2021/07/20 07:18:24;;;;;;;14.20;10.30;;;;;;;;;;3585326;40;20040;-59
2021/07/20 07:20:52;;;;;;;12.55;9.38;;;;;;;;;;3585793;40;20082;-58
2021/07/20 07:23:18;;;;;;;16.05;9.38;;;;;;;;;;3585458;40;20051;-58
2021/07/20 07:25:52;;;;;;;14.82;10.57;;;;;;;;;;3585612;40;20040;-57
2021/07/20 07:28:20;;;;;;;13.75;9.45;;;;;;;;;;3584276;40;20032;-56
2021/07/20 07:30:50;;;;;;;11.55;9.50;;;;;;;;;;3585697;40;20052;-56
2021/07/20 07:33:16;;;;;;;13.35;9.82;;;;;;;;;;3585374;40;20129;-56
2021/07/20 07:35:42;;;;;;;17.55;9.27;;;;;;;;;;3584187;40;20060;-56
2021/07/20 07:38:09;;;;;;;13.30;9.48;;;;;;;;;;3585695;40;20122;-57
2021/07/20 07:40:35;;;;;;;15.27;9.38;;;;;;;;;;3586293;40;20051;-57
2021/07/20 07:43:04;;;;;;;14.48;9.07;;;;;;;;;;3586718;40;20052;-59
2021/07/20 07:45:31;;;;;;;11.57;8.75;;;;;;;;;;3586100;40;20040;-56
2021/07/20 07:47:58;;;;;;;13.13;8.95;;;;;;;;;;3586743;40;20037;-58
2021/07/20 07:50:24;;;;;;;16.40;10.10;;;;;;;;;;3586794;40;20058;-57
2021/07/20 07:52:51;;;;;;;10.43;8.02;;;;;;;;;;3586470;40;20044;-59
2021/07/20 07:55:20;;;;;;;10.57;8.77;;;;;;;;;;3586261;40;20722;-57
2021/07/20 07:57:46;;;;;;;11.02;8.38;;;;;;;;;;3586527;40;20065;-57
2021/07/20 08:00:12;;;;;;;16.48;8.60;;;;;;;;;;3586607;40;20025;-57
2021/07/20 08:02:39;;;;;;;16.58;9.23;;;;;;;;;;3586573;40;20264;-57
2021/07/20 08:05:06;;;;;;;13.23;9.25;;;;;;;;;;3585001;40;20433;-58
2021/07/20 08:07:33;;;;;;;16.60;9.02;;;;;;;;;;3586321;40;20044;-58
2021/07/20 08:10:00;;;;;;;10.75;8.45;;;;;;;;;;3586110;40;20055;-57
2021/07/20 08:12:29;;;;;;;13.98;9.02;;;;;;;;;;3585921;40;20268;-57
2021/07/20 08:14:54;;;;;;;13.82;8.82;;;;;;;;;;3586130;40;20053;-57
2021/07/20 08:17:22;;;;;;;13.52;8.32;;;;;;;;;;3586105;40;20104;-57
2021/07/20 08:19:48;;;;;;;11.43;8.40;;;;;;;;;;3585581;40;20032;-57
2021/07/20 08:22:17;;;;;;;11.73;8.88;;;;;;;;;;3585919;40;20106;-57
2021/07/20 08:24:54;;;;;;;11.43;8.50;;;;;;;;;;3584548;40;20029;-58
2021/07/20 08:27:26;;;;;;;12.10;8.68;;;;;;;;;;3585089;40;20079;-58
2021/07/20 08:29:55;;;;;;;14.15;7.75;;;;;;;;;;3585525;40;20044;-57
2021/07/20 08:32:22;;;;;;;11.68;7.72;;;;;;;;;;3584894;40;20029;-57
2021/07/20 08:34:55;;;;;;;10.10;8.20;;;;;;;;;;3585685;40;20032;-58
2021/07/20 08:37:22;;;;;;;11.80;7.78;;;;;;;;;;3586063;40;20040;-57
2021/07/20 08:39:49;;;;;;;15.52;8.60;;;;;;;;;;3585025;40;20040;-57
2021/07/20 08:42:21;;;;;;;9.13;7.53;;;;;;;;;;3585261;40;20031;-57
2021/07/20 08:45:13;;;;;;;10.57;8.02;;;;;;;;;;3585545;40;20051;-58
2021/07/20 08:48:00;;;;;;;13.52;8.38;;;;;;;;;;3585808;40;20045;-57
2021/07/20 08:50:33;;;;;;;12.23;8.65;;;;;;;;;;3585394;40;20107;-58
2021/07/20 08:53:11;;;;;;;11.60;8.13;;;;;;;;;;3585665;40;20045;-57
2021/07/20 08:55:43;;;;;;;8.80;7.88;;;;;;;;;;3585059;40;20044;-58
2021/07/20 08:58:17;;;;;;;12.27;8.52;;;;;;;;;;3586388;40;20025;-57
2021/07/20 09:00:46;;;;;;;15.55;9.40;;;;;;;;;;3585396;40;20032;-57
2021/07/20 09:03:32;;;;;;;11.43;8.27;;;;;;;;;;3586083;40;20134;-57
2021/07/20 09:06:11;;;;;;;17.30;8.55;;;;;;;;;;3585683;40;20033;-57
2021/07/20 09:08:41;;;;;;;14.43;8.60;;;;;;;;;;3586351;40;20654;-57
2021/07/20 09:11:13;;;;;;;;;;;;;;;;;;3586303;40;20086;-56
2021/07/20 09:13:46;;;;;;;14.02;8.75;;;;;;;;;;3585122;40;20598;-56
2021/07/20 09:16:22;;;;;;;11.05;8.68;;;;;;;;;;3582925;40;20056;-56
2021/07/20 09:18:54;;;;;;;11.40;8.93;;;;;;;;;;3585492;40;20102;-58
2021/07/20 09:21:24;;;;;;;10.70;7.97;;;;;;;;;;3585356;40;20040;-57
2021/07/20 09:24:09;;;;;;;10.52;8.77;;;;;;;;;;3583470;40;20465;-58
2021/07/20 09:26:43;;;;;;;10.55;8.38;;;;;;;;;;3583484;40;20049;-58
2021/07/20 09:29:15;;;;;;;15.05;9.50;;;;;;;;;;3584441;40;20043;-57
2021/07/20 09:31:55;;;;;;;17.35;10.15;;;;;;;;;;3585887;40;20042;-57
2021/07/20 09:34:41;;;;;;;;;;;;;;;;;;3586478;40;20035;-58
2021/07/20 09:37:12;;;;;;;12.98;8.80;;;;;;;;;;3583014;40;19937;-57
2021/07/20 09:40:04;;;;;;;13.70;9.02;;;;;;;;;;3585386;40;20024;-58
2021/07/20 09:42:44;;;;;;;12.82;8.90;;;;;;;;;;3585520;40;20044;-57
2021/07/20 09:45:15;;;;;;;12.13;7.70;;;;;;;;;;3585377;40;20033;-58
2021/07/20 09:47:52;;;;;;;12.05;8.80;;;;;;;;;;3582529;40;20056;-58
2021/07/20 09:50:18;;;;;;;14.90;9.52;;;;;;;;;;3585168;40;20051;-58
2021/07/20 09:53:13;;;;;;;10.13;8.95;;;;;;;;;;3584185;40;20064;-58
2021/07/20 09:56:12;;;;;;;14.02;10.23;;;;;;;;;;3584674;40;20055;-58
2021/07/20 09:58:56;;;;;;;10.57;8.47;;;;;;;;;;3585305;40;20171;-58
2021/07/20 10:01:26;;;;;;;13.05;9.60;;;;;;;;;;3584699;40;20056;-57
2021/07/20 10:04:18;;;;;;;11.00;9.35;;;;;;;;;;3585812;40;20044;-58
2021/07/20 10:07:01;;;;;;;13.77;8.27;;;;;;;;;;3585814;40;20051;-56
2021/07/20 10:10:02;;;;;;;14.10;9.07;;;;;;;;;;3585583;40;20092;-58
2021/07/20 10:12:29;;;;;;;;;;;;;;;;;;3585514;40;20048;-57
2021/07/20 10:15:11;;;;;;;10.40;9.07;;;;;;;;;;3583711;40;19941;-57
2021/07/20 10:17:45;;;;;;;10.65;8.52;;;;;;;;;;3584705;40;20088;-56
2021/07/20 10:20:22;;;;;;;11.75;8.52;;;;;;;;;;3584796;40;20358;-56
2021/07/20 10:23:05;;;;;;;12.00;9.68;;;;;;;;;;3585469;40;20048;-58
2021/07/20 10:25:54;;;;;;;12.32;8.43;;;;;;;;;;3584714;40;20036;-57
2021/07/20 10:28:25;;;;;;;10.77;8.82;;;;;;;;;;3584635;40;20047;-58
2021/07/20 10:31:01;;;;;;;12.38;8.82;;;;;;;;;;3585424;40;20095;-57
2021/07/20 10:33:42;;;;;;;12.10;8.65;;;;;;;;;;3584885;40;20037;-58
2021/07/20 10:36:19;;;;;;;9.75;8.13;;;;;;;;;;3584915;40;20049;-59
2021/07/20 10:39:08;;;;;;;12.82;8.63;;;;;;;;;;3585559;40;20036;-56
2021/07/20 10:41:43;;;;;;;15.00;8.40;;;;;;;;;;3584527;40;20040;-57
2021/07/20 10:44:13;;;;;;;12.20;8.93;;;;;;;;;;3586152;40;20039;-56
2021/07/20 10:46:39;;;;;;;;;;;;;;;;;;3586122;40;20029;-55
2021/07/20 10:49:49;;;;;;;10.73;8.13;;;;;;;;;;3584976;40;19924;-57
2021/07/20 10:52:20;;;;;;;11.82;8.73;;;;;;;;;;3575651;40;20792;-57
2021/07/20 10:54:55;;;;;;;10.82;7.72;;;;;;;;;;3586971;40;20033;-58
2021/07/20 10:57:27;;;;;;;11.75;8.32;;;;;;;;;;3586402;40;20036;-57
2021/07/20 11:00:05;;;;;;;13.40;8.40;;;;;;;;;;3585719;40;20558;-57
2021/07/20 11:02:56;;;;;;;13.25;8.98;;;;;;;;;;3586001;40;20036;-58
2021/07/20 11:05:22;;;;;;;11.02;8.05;;;;;;;;;;3586719;40;20376;-59
2021/07/20 11:07:48;;;;;;;11.02;8.68;;;;;;;;;;3585317;40;20411;-57
2021/07/20 11:10:27;;;;;;;14.95;8.65;;;;;;;;;;3586034;40;20048;-57
2021/07/20 11:12:57;;;;;;;12.77;9.27;;;;;;;;;;3584514;40;20070;-57
2021/07/20 11:15:26;;;;;;;14.85;8.85;;;;;;;;;;3585630;40;20426;-56
2021/07/20 11:17:52;;;;;;;10.57;8.32;;;;;;;;;;3585114;40;20039;-58
2021/07/20 11:20:20;;;;;;;13.15;8.27;;;;;;;;;;3583921;40;20149;-58
2021/07/20 11:22:47;;;;;;;12.15;8.60;;;;;;;;;;3583455;40;20037;-58
2021/07/20 11:25:15;;;;;;;12.77;9.30;;;;;;;;;;3583448;40;20044;-58
2021/07/20 11:27:44;;;;;;;11.05;8.40;;;;;;;;;;3585749;40;20040;-59
2021/07/20 11:30:15;;;;;;;15.18;9.45;;;;;;;;;;3586580;40;20141;-58
2021/07/20 11:32:51;;;;;;;10.65;8.32;;;;;;;;;;3585714;40;20506;-59
2021/07/20 11:35:21;;;;;;;13.27;9.25;;;;;;;;;;3580448;40;20291;-58
2021/07/20 11:37:58;;;;;;;10.85;8.18;;;;;;;;;;3584388;40;20055;-58
2021/07/20 11:40:30;;;;;;;9.60;7.65;;;;;;;;;;3583783;40;20454;-58
2021/07/20 11:43:06;;;;;;;9.48;8.10;;;;;;;;;;3582634;40;20047;-57
2021/07/20 11:45:55;;;;;;;11.18;8.13;;;;;;;;;;3583905;40;20060;-59
2021/07/20 11:48:21;;;;;;;14.02;8.93;;;;;;;;;;3580842;40;20033;-60
2021/07/20 11:51:06;;;;;;;11.45;8.30;;;;;;;;;;3583916;40;20040;-59
2021/07/20 11:53:59;;;;;;;10.35;7.97;;;;;;;;;;3586341;40;20044;-59
2021/07/20 11:56:28;;;;;;;9.38;8.30;;;;;;;;;;3584911;40;20052;-59
2021/07/20 11:59:16;;;;;;;11.70;8.38;;;;;;;;;;3581642;40;20036;-60
2021/07/20 12:01:56;;;;;;;11.02;8.50;;;;;;;;;;3582941;40;20043;-59
2021/07/20 12:04:54;;;;;;;12.18;8.80;;;;;;;;;;3583506;40;20036;-59
2021/07/20 12:07:34;;;;;;;12.57;9.13;;;;;;;;;;3583601;40;20046;-59
2021/07/20 12:10:24;;;;;;;12.35;8.10;;;;;;;;;;3585417;40;20116;-58
2021/07/20 12:12:51;;;;;;;;;;;;;;;;;;3585126;40;20029;-58
2021/07/20 12:15:19;;;;;;;11.30;8.05;;;;;;;;;;3584496;40;19968;-58
2021/07/20 12:17:45;;;;;;;11.75;9.05;;;;;;;;;;3585276;40;20029;-58
2021/07/20 12:20:13;;;;;;;11.07;8.82;;;;;;;;;;3584018;40;20048;-58
2021/07/20 12:22:40;;;;;;;11.63;8.77;;;;;;;;;;3583798;40;20449;-57
2021/07/20 12:25:10;;;;;;;11.00;8.77;;;;;;;;;;3585700;40;20032;-58
2021/07/20 12:27:39;;;;;;;;;;;;;;;;;;3585274;40;20052;-58
2021/07/20 12:30:08;;;;;;;11.73;8.35;;;;;;;;;;3584415;40;19940;-58
2021/07/20 12:32:34;;;;;;;10.75;7.07;;;;;;;;;;3583788;40;20035;-58
2021/07/20 12:35:01;;;;;;;9.98;8.65;;;;;;;;;;3583148;40;20036;-57
2021/07/20 12:37:27;;;;;;;11.95;9.25;;;;;;;;;;3585019;40;20032;-59
2021/07/20 12:39:57;;;;;;;11.55;7.03;;;;;;;;;;3583426;40;20041;-58
2021/07/20 12:42:22;;;;;;;10.60;7.38;;;;;;;;;;3584162;40;20031;-58
2021/07/20 12:45:02;;;;;;;10.82;7.82;;;;;;;;;;3584023;40;20032;-58
2021/07/20 12:47:37;;;;;;;8.63;7.15;;;;;;;;;;3585248;40;20036;-58
2021/07/20 12:50:04;;;;;;;14.65;8.57;;;;;;;;;;3585520;40;20441;-58
2021/07/20 12:52:35;;;;;;;11.55;7.88;;;;;;;;;;3585273;40;20056;-58
2021/07/20 12:55:01;;;;;;;9.25;7.53;;;;;;;;;;3586013;40;20053;-58
2021/07/20 12:57:26;;;;;;;10.63;8.38;;;;;;;;;;3585425;40;20041;-58
2021/07/20 12:59:53;;;;;;;9.50;7.72;;;;;;;;;;3586108;40;20081;-59
2021/07/20 13:02:19;;;;;;;10.52;8.45;;;;;;;;;;3585384;40;20049;-58
2021/07/20 13:04:51;;;;;;;8.80;7.80;;;;;;;;;;3585986;40;20037;-59
2021/07/20 13:07:17;;;;;;;9.55;8.25;;;;;;;;;;3586064;40;20295;-58
2021/07/20 13:09:44;;;;;;;9.13;8.10;;;;;;;;;;3585079;40;20094;-59
2021/07/20 13:12:10;;;;;;;9.65;8.30;;;;;;;;;;3585638;40;20068;-59
2021/07/20 13:14:36;;;;;;;9.52;7.63;;;;;;;;;;3583765;40;20067;-59
2021/07/20 13:17:03;;;;;;;10.95;7.97;;;;;;;;;;3585138;40;20028;-59
2021/07/20 13:19:32;;;;;;;13.55;7.65;;;;;;;;;;3583807;40;20043;-59
2021/07/20 13:21:59;;;;;;;9.95;8.60;;;;;;;;;;3585202;40;20044;-60
2021/07/20 13:24:28;;;;;;;10.35;8.25;;;;;;;;;;3584576;40;20025;-60
2021/07/20 13:26:58;;;;;;;9.07;7.80;;;;;;;;;;3582648;40;20044;-58
2021/07/20 13:29:25;;;;;;;17.05;8.77;;;;;;;;;;3583134;40;20033;-58
2021/07/20 13:31:51;;;;;;;9.85;7.68;;;;;;;;;;3582010;40;20043;-60
2021/07/20 13:34:18;;;;;;;14.13;7.93;;;;;;;;;;3582394;40;20028;-59
2021/07/20 13:36:51;;;;;;;8.82;7.53;;;;;;;;;;3585608;40;20029;-59
2021/07/20 13:39:18;;;;;;;14.68;8.98;;;;;;;;;;3585007;40;20049;-59
2021/07/20 13:41:45;;;;;;;11.32;8.77;;;;;;;;;;3582313;40;20086;-57
2021/07/20 13:44:14;;;;;;;10.90;8.77;;;;;;;;;;3584038;40;20040;-57
2021/07/20 13:46:49;;;;;;;9.98;7.68;;;;;;;;;;3583793;40;20032;-60
2021/07/20 13:49:20;;;;;;;11.70;8.93;;;;;;;;;;3584606;40;20077;-58
2021/07/20 13:51:49;;;;;;;11.23;8.18;;;;;;;;;;3583889;40;20032;-58
2021/07/20 13:54:16;;;;;;;15.57;7.85;;;;;;;;;;3583477;40;20366;-58
2021/07/20 13:56:44;;;;;;;10.00;8.32;;;;;;;;;;3584773;40;20047;-58
2021/07/20 13:59:14;;;;;;;9.65;8.15;;;;;;;;;;3584475;40;20032;-58
2021/07/20 14:01:42;;;;;;;13.82;8.38;;;;;;;;;;3583738;40;20442;-58
2021/07/20 14:04:09;;;;;;;9.73;8.18;;;;;;;;;;3584513;40;20056;-58
2021/07/20 14:06:36;;;;;;;12.07;9.25;;;;;;;;;;3584641;40;20107;-58
2021/07/20 14:09:04;;;;;;;12.88;8.18;;;;;;;;;;3574590;40;20127;-58
2021/07/20 14:11:30;;;;;;;12.13;8.75;;;;;;;;;;3583416;40;20086;-58
2021/07/20 14:13:58;;;;;;;11.93;8.20;;;;;;;;;;3584842;40;20037;-58
2021/07/20 14:16:24;;;;;;;8.82;7.80;;;;;;;;;;3585063;40;20050;-60
2021/07/20 14:18:51;;;;;;;9.80;7.97;;;;;;;;;;3583405;40;20037;-60
2021/07/20 14:21:24;;;;;;;9.60;7.47;;;;;;;;;;3585030;40;20044;-60
2021/07/20 14:24:03;;;;;;;11.95;8.02;;;;;;;;;;3583185;40;20036;-60
2021/07/20 14:26:30;;;;;;;9.85;7.78;;;;;;;;;;3582462;40;20041;-60
2021/07/20 14:28:58;;;;;;;10.13;8.00;;;;;;;;;;3585282;40;20040;-60
2021/07/20 14:31:31;;;;;;;12.10;8.13;;;;;;;;;;3586263;40;20164;-59
2021/07/20 14:34:09;;;;;;;11.38;8.68;;;;;;;;;;3586276;40;20028;-59
2021/07/20 14:36:49;;;;;;;11.35;8.70;;;;;;;;;;3584570;40;20330;-60
2021/07/20 14:39:26;;;;;;;8.55;7.30;;;;;;;;;;3584902;40;20028;-60
2021/07/20 14:42:07;;;;;;;10.05;7.95;;;;;;;;;;3584570;40;20049;-60
2021/07/20 14:44:39;;;;;;;10.10;7.95;;;;;;;;;;3586376;40;20044;-59
2021/07/20 14:47:05;;;;;;;9.93;8.52;;;;;;;;;;3585362;40;20078;-59
2021/07/20 14:49:40;;;;;;;10.30;7.55;;;;;;;;;;3586607;40;20037;-59